Time;durP1;ratioP1;P1;durP2;ratioP2;P2;SDS_P1;SDS_P2;PMS_P1;PMS_P2;Temp;Humidity;BMP_temperature;BMP_pressure;BME280_temperature;BME280_humidity;BME280_pressure;Samples;Min_cycle;Max_cycle;Signal;HPM_P1;HPM_P2
2023/05/25 00:00:17;;;;;;;;;;;7.80;99.90;;;;;;5121387;27;20364;-79
2023/05/25 00:02:45;;;;;;;;;;;7.70;99.90;;;;;;5111307;28;19928;-78
2023/05/25 00:05:11;;;;;;;;;;;7.60;99.90;;;;;;5095658;28;19939;-79
2023/05/25 00:07:36;;;;;;;;;;;7.60;99.90;;;;;;5112697;28;19932;-78
2023/05/25 00:10:02;;;;;;;;;;;7.60;99.90;;;;;;5111543;28;19924;-79
2023/05/25 00:12:28;;;;;;;;;;;7.50;99.90;;;;;;5104280;28;20022;-78
2023/05/25 00:14:53;;;;;;;;;;;7.50;99.90;;;;;;5111472;28;20028;-78
2023/05/25 00:17:20;;;;;;;;;;;7.40;99.90;;;;;;5078669;28;19924;-77
2023/05/25 00:19:46;;;;;;;;;;;7.30;99.90;;;;;;5123420;27;19932;-78
2023/05/25 00:22:11;;;;;;;;;;;7.20;99.90;;;;;;5108385;28;19947;-78
2023/05/25 00:24:38;;;;;;;;;;;7.10;99.90;;;;;;5111235;28;20291;-83
2023/05/25 00:27:05;;;;;;;;;;;7.10;99.90;;;;;;5113471;28;19924;-78
2023/05/25 00:29:31;;;;;;;;;;;7.00;99.90;;;;;;5109598;28;20010;-80
2023/05/25 00:31:57;;;;;;;;;;;7.00;99.90;;;;;;5113798;28;20003;-78
2023/05/25 00:34:22;;;;;;;;;;;6.90;99.90;;;;;;5108853;28;19946;-77
2023/05/25 00:36:48;;;;;;;;;;;6.90;99.90;;;;;;5111959;28;20392;-78
2023/05/25 00:39:14;;;;;;;;;;;6.80;99.90;;;;;;5091029;28;19931;-78
2023/05/25 00:41:41;;;;;;;;;;;6.80;99.90;;;;;;5078469;28;19924;-77
2023/05/25 00:44:08;;;;;;;;;;;6.70;99.90;;;;;;5089513;28;20351;-78
2023/05/25 00:46:33;;;;;;;;;;;6.70;99.90;;;;;;5109870;28;19924;-78
2023/05/25 00:48:59;;;;;;;;;;;6.60;99.90;;;;;;5074977;28;19935;-78
2023/05/25 00:51:25;;;;;;;;;;;6.60;99.90;;;;;;5111037;28;19924;-81
2023/05/25 00:53:51;;;;;;;;;;;6.50;99.90;;;;;;5124928;27;19924;-78
2023/05/25 00:56:25;;;;;;;;;;;6.50;99.90;;;;;;5110494;28;19927;-78
2023/05/25 00:58:52;;;;;;;;;;;6.50;99.90;;;;;;5107855;28;19935;-79
2023/05/25 01:01:19;;;;;;;;;;;6.50;99.90;;;;;;5109974;28;19924;-78
2023/05/25 01:03:47;;;;;;;;;;;6.50;99.90;;;;;;5091034;28;20018;-78
2023/05/25 01:06:13;;;;;;;;;;;6.50;99.90;;;;;;5108160;28;19946;-78
2023/05/25 01:08:44;;;;;;;;;;;6.40;99.90;;;;;;5109051;28;20421;-78
2023/05/25 01:11:10;;;;;;;;;;;6.40;99.90;;;;;;5110924;28;19924;-77
2023/05/25 01:13:37;;;;;;;;;;;6.40;99.90;;;;;;5103394;28;19942;-78
2023/05/25 01:16:03;;;;;;;;;;;6.40;99.90;;;;;;5092762;28;20364;-79
2023/05/25 01:18:29;;;;;;;;;;;6.40;99.90;;;;;;5108396;28;19980;-78
2023/05/25 01:21:12;;;;;;;;;;;6.40;99.90;;;;;;5101577;28;19928;-78
2023/05/25 01:26:28;;;;;;;;;;;6.40;99.90;;;;;;5109378;28;20510;-79
2023/05/25 01:28:54;;;;;;;;;;;6.40;99.90;;;;;;5109296;28;20429;-78
2023/05/25 01:31:21;;;;;;;;;;;6.40;99.90;;;;;;5092703;28;19928;-77
2023/05/25 01:33:48;;;;;;;;;;;6.50;99.90;;;;;;5108288;28;19975;-79
2023/05/25 01:36:14;;;;;;;;;;;6.60;99.90;;;;;;5094204;28;20010;-78
2023/05/25 01:38:40;;;;;;;;;;;6.60;99.90;;;;;;5106179;28;20019;-81
2023/05/25 01:41:06;;;;;;;;;;;6.60;99.90;;;;;;5111501;28;19979;-78
2023/05/25 01:43:31;;;;;;;;;;;6.60;99.90;;;;;;5111199;28;20015;-78
2023/05/25 01:46:01;;;;;;;;;;;6.70;99.90;;;;;;5102757;28;19924;-82
2023/05/25 01:48:36;;;;;;;;;;;6.70;99.90;;;;;;5101523;27;19971;-82
2023/05/25 01:51:32;;;;;;;;;;;6.70;99.90;;;;;;5111036;28;19924;-78
2023/05/25 01:54:00;;;;;;;;;;;6.60;99.90;;;;;;5067601;28;20000;-78
2023/05/25 01:56:27;;;;;;;;;;;6.60;99.90;;;;;;5104886;28;20512;-79
2023/05/25 01:58:54;;;;;;;;;;;6.50;99.90;;;;;;5086463;28;19954;-78
2023/05/25 02:01:20;;;;;;;;;;;6.40;99.90;;;;;;5081359;28;20292;-77
2023/05/25 02:03:47;;;;;;;;;;;6.40;99.90;;;;;;5091227;28;19935;-79
2023/05/25 02:06:14;;;;;;;;;;;6.40;99.90;;;;;;5108071;28;20518;-86
2023/05/25 02:08:40;;;;;;;;;;;6.40;99.90;;;;;;5089546;28;19931;-78
2023/05/25 02:11:06;;;;;;;;;;;6.30;99.90;;;;;;5099534;28;19932;-78
2023/05/25 02:13:31;;;;;;;;;;;6.30;99.90;;;;;;5102887;28;19928;-79
2023/05/25 02:15:57;;;;;;;;;;;6.20;99.90;;;;;;5108380;28;19957;-78
2023/05/25 02:18:22;;;;;;;;;;;6.20;99.90;;;;;;5100482;28;19934;-78
2023/05/25 02:20:48;;;;;;;;;;;6.20;99.90;;;;;;5108949;28;19927;-78
2023/05/25 02:23:14;;;;;;;;;;;6.10;99.90;;;;;;5110618;28;19924;-82
2023/05/25 02:25:41;;;;;;;;;;;6.10;99.90;;;;;;5111504;28;19959;-78
2023/05/25 02:28:06;;;;;;;;;;;6.10;99.90;;;;;;5105983;28;19932;-79
2023/05/25 02:30:32;;;;;;;;;;;6.10;99.90;;;;;;5109789;28;19924;-78
2023/05/25 02:32:58;;;;;;;;;;;6.10;99.90;;;;;;5094136;28;19924;-78
2023/05/25 02:35:23;;;;;;;;;;;6.10;99.90;;;;;;5076585;28;19924;-77
2023/05/25 02:37:49;;;;;;;;;;;6.10;99.90;;;;;;5109684;28;19928;-77
2023/05/25 02:40:16;;;;;;;;;;;6.00;99.90;;;;;;5109959;28;19924;-79
2023/05/25 02:42:41;;;;;;;;;;;6.00;99.90;;;;;;5108624;28;20376;-77
2023/05/25 02:45:09;;;;;;;;;;;6.10;99.90;;;;;;5109403;28;20002;-78
2023/05/25 02:47:34;;;;;;;;;;;6.10;99.90;;;;;;5109434;28;19924;-78
2023/05/25 02:50:00;;;;;;;;;;;6.10;1.00;;;;;;5108356;28;20004;-78
2023/05/25 02:52:26;;;;;;;;;;;6.10;1.00;;;;;;5084539;28;19932;-79
2023/05/25 02:54:52;;;;;;;;;;;6.20;1.00;;;;;;5089666;28;19925;-78
2023/05/25 02:57:17;;;;;;;;;;;6.20;1.00;;;;;;5109140;28;19924;-77
2023/05/25 02:59:43;;;;;;;;;;;6.20;1.00;;;;;;5104872;28;20398;-78
2023/05/25 03:02:08;;;;;;;;;;;6.10;1.00;;;;;;5110334;28;19924;-78
2023/05/25 03:04:36;;;;;;;;;;;6.20;1.00;;;;;;5106132;28;19931;-78
2023/05/25 03:07:02;;;;;;;;;;;6.10;1.00;;;;;;5109043;28;19924;-78
2023/05/25 03:09:28;;;;;;;;;;;6.10;1.00;;;;;;5106754;28;19924;-78
2023/05/25 03:11:53;;;;;;;;;;;6.10;1.00;;;;;;5092122;28;19927;-77
2023/05/25 03:14:19;;;;;;;;;;;6.10;1.00;;;;;;5091194;28;19931;-77
2023/05/25 03:16:44;;;;;;;;;;;6.10;1.00;;;;;;5109429;28;20015;-77
2023/05/25 03:19:11;;;;;;;;;;;6.20;1.00;;;;;;5102918;28;19935;-77
2023/05/25 03:21:37;;;;;;;;;;;6.20;1.00;;;;;;5106313;28;19954;-79
2023/05/25 03:24:02;;;;;;;;;;;6.20;1.00;;;;;;5106776;28;19924;-80
2023/05/25 03:26:29;;;;;;;;;;;6.20;1.00;;;;;;5106700;28;19924;-78
2023/05/25 03:28:55;;;;;;;;;;;6.20;1.00;;;;;;5106791;28;19924;-77
2023/05/25 03:31:21;;;;;;;;;;;6.20;1.00;;;;;;5102211;28;20395;-78
2023/05/25 03:33:47;;;;;;;;;;;6.20;1.00;;;;;;5107043;28;19973;-78
2023/05/25 03:36:16;;;;;;;;;;;6.20;1.00;;;;;;5101697;28;19974;-78
2023/05/25 03:38:42;;;;;;;;;;;6.20;1.00;;;;;;5106106;28;19951;-78
2023/05/25 03:41:07;;;;;;;;;;;6.20;1.00;;;;;;5118977;28;19963;-79
2023/05/25 03:43:33;;;;;;;;;;;6.30;1.00;;;;;;5106609;28;19970;-77
2023/05/25 03:45:59;;;;;;;;;;;6.30;1.00;;;;;;5102055;28;20353;-77
2023/05/25 03:48:24;;;;;;;;;;;6.40;1.00;;;;;;5110061;28;19923;-77
2023/05/25 03:50:50;;;;;;;;;;;6.40;1.00;;;;;;5104637;28;20365;-77
2023/05/25 03:53:16;;;;;;;;;;;6.40;1.00;;;;;;5110111;28;19934;-77
2023/05/25 03:55:42;;;;;;;;;;;6.40;1.00;;;;;;5113391;28;20328;-78
2023/05/25 03:58:10;;;;;;;;;;;6.50;1.00;;;;;;5098051;28;19924;-77
2023/05/25 04:00:36;;;;;;;;;;;6.60;1.00;;;;;;5108225;28;19932;-77
2023/05/25 04:03:02;;;;;;;;;;;6.70;1.00;;;;;;5110123;28;19923;-78
2023/05/25 04:05:28;;;;;;;;;;;6.80;1.00;;;;;;5109344;28;19967;-84
2023/05/25 04:07:54;;;;;;;;;;;6.90;1.00;;;;;;5109001;28;19924;-77
2023/05/25 04:10:20;;;;;;;;;;;6.90;1.00;;;;;;5105277;28;19928;-77
2023/05/25 04:12:45;;;;;;;;;;;6.90;1.00;;;;;;5107235;28;19935;-77
2023/05/25 04:15:13;;;;;;;;;;;7.00;1.00;;;;;;5112511;28;19928;-77
2023/05/25 04:17:39;;;;;;;;;;;7.10;1.00;;;;;;5106965;28;20331;-78
2023/05/25 04:20:05;;;;;;;;;;;7.10;1.00;;;;;;5111484;28;20372;-78
2023/05/25 04:22:32;;;;;;;;;;;7.10;1.00;;;;;;5095146;28;20019;-79
2023/05/25 04:24:57;;;;;;;;;;;7.20;1.00;;;;;;5111036;28;20470;-77
2023/05/25 04:27:25;;;;;;;;;;;7.20;1.00;;;;;;5077308;28;19953;-77
2023/05/25 04:29:52;;;;;;;;;;;7.20;1.00;;;;;;5091150;28;20372;-79
2023/05/25 04:32:20;;;;;;;;;;;7.20;1.00;;;;;;5107026;27;19959;-78
2023/05/25 04:34:47;;;;;;;;;;;7.20;1.00;;;;;;5122243;27;19985;-84
2023/05/25 04:37:12;;;;;;;;;;;7.30;1.00;;;;;;5105709;28;20037;-78
2023/05/25 04:39:38;;;;;;;;;;;7.30;1.00;;;;;;5109416;28;19934;-84
2023/05/25 04:42:04;;;;;;;;;;;7.40;1.00;;;;;;5108951;28;20370;-78
2023/05/25 04:44:30;;;;;;;;;;;7.40;1.00;;;;;;5110706;28;20334;-78
2023/05/25 04:46:58;;;;;;;;;;;7.40;1.00;;;;;;5104475;28;19924;-82
2023/05/25 04:49:25;;;;;;;;;;;7.50;1.00;;;;;;5092813;28;19928;-79
2023/05/25 04:51:51;;;;;;;;;;;7.60;1.00;;;;;;5109643;28;19951;-79
2023/05/25 04:54:16;;;;;;;;;;;7.50;1.00;;;;;;5091908;28;20501;-79
2023/05/25 04:56:42;;;;;;;;;;;7.60;1.00;;;;;;5109444;28;19924;-78
2023/05/25 04:59:08;;;;;;;;;;;7.60;1.00;;;;;;5108174;28;19935;-78
2023/05/25 05:01:39;;;;;;;;;;;7.70;1.00;;;;;;5088715;28;19967;-78
2023/05/25 05:04:05;;;;;;;;;;;7.80;1.00;;;;;;5091920;28;20390;-82
2023/05/25 05:06:31;;;;;;;;;;;7.90;1.00;;;;;;5109965;28;19981;-81
2023/05/25 05:08:56;;;;;;;;;;;7.90;1.00;;;;;;5108078;28;19971;-81
2023/05/25 05:11:22;;;;;;;;;;;8.00;1.00;;;;;;5106088;28;19931;-84
2023/05/25 05:13:48;;;;;;;;;;;8.10;1.00;;;;;;5106819;28;20428;-80
2023/05/25 05:16:13;;;;;;;;;;;8.20;1.00;;;;;;5109304;28;19931;-76
2023/05/25 05:18:39;;;;;;;;;;;8.30;1.00;;;;;;5107775;28;19924;-79
2023/05/25 05:21:04;;;;;;;;;;;8.40;1.00;;;;;;5087771;28;20398;-81
2023/05/25 05:23:32;;;;;;;;;;;8.50;1.00;;;;;;5111775;28;19989;-81
2023/05/25 05:25:58;;;;;;;;;;;8.60;1.00;;;;;;5089103;28;19924;-83
2023/05/25 05:28:26;;;;;;;;;;;8.60;1.00;;;;;;5105656;28;19931;-78
2023/05/25 05:30:52;;;;;;;;;;;8.70;1.00;;;;;;5107230;28;20444;-81
2023/05/25 05:33:17;;;;;;;;;;;8.90;1.00;;;;;;5111201;28;20003;-79
2023/05/25 05:35:43;;;;;;;;;;;9.00;1.00;;;;;;5108452;28;20014;-85
2023/05/25 05:38:09;;;;;;;;;;;9.10;1.00;;;;;;5086868;28;19931;-83
2023/05/25 05:40:35;;;;;;;;;;;9.10;3.30;;;;;;5106932;28;19939;-78
2023/05/25 05:43:00;;;;;;;;;;;9.30;3.50;;;;;;5107079;28;19928;-83
2023/05/25 05:45:26;;;;;;;;;;;9.50;24.80;;;;;;5104222;27;19938;-78
2023/05/25 05:47:52;;;;;;;;;;;9.70;25.90;;;;;;5103594;28;19928;-81
2023/05/25 05:50:17;;;;;;;;;;;9.80;24.40;;;;;;5105485;27;19930;-83
2023/05/25 05:52:43;;;;;;;;;;;9.90;17.50;;;;;;5091389;28;19938;-81
2023/05/25 05:55:09;;;;;;;;;;;10.00;18.00;;;;;;5107848;28;19923;-81
2023/05/25 05:57:34;;;;;;;;;;;10.10;10.50;;;;;;5097547;28;19928;-81
2023/05/25 06:00:00;;;;;;;;;;;10.30;7.60;;;;;;5104268;28;19948;-83
2023/05/25 06:02:25;;;;;;;;;;;10.40;12.40;;;;;;5098218;28;20129;-82
2023/05/25 06:04:51;;;;;;;;;;;10.70;4.70;;;;;;5107322;28;19927;-81
2023/05/25 06:07:16;;;;;;;;;;;11.00;1.00;;;;;;5098686;28;20321;-81
2023/05/25 06:09:42;;;;;;;;;;;11.30;1.00;;;;;;5104738;28;19928;-82
2023/05/25 06:12:08;;;;;;;;;;;11.60;1.00;;;;;;5106270;28;20007;-81
2023/05/25 06:14:33;;;;;;;;;;;11.90;1.00;;;;;;5100493;28;19959;-81
2023/05/25 06:16:59;;;;;;;;;;;12.10;1.00;;;;;;5109163;28;19930;-81
2023/05/25 06:19:24;;;;;;;;;;;12.30;1.00;;;;;;5108594;28;20369;-81
2023/05/25 06:21:50;;;;;;;;;;;12.40;1.00;;;;;;5106200;28;20038;-87
2023/05/25 06:24:15;;;;;;;;;;;12.50;1.00;;;;;;5109078;27;20004;-82
2023/05/25 06:26:41;;;;;;;;;;;12.70;99.90;;;;;;5109845;28;20018;-82
2023/05/25 06:29:07;;;;;;;;;;;12.90;99.90;;;;;;5105909;28;20376;-82
2023/05/25 06:31:32;;;;;;;;;;;13.00;99.90;;;;;;5092480;28;19923;-82
2023/05/25 06:33:58;;;;;;;;;;;13.10;99.90;;;;;;5101692;28;19924;-82
2023/05/25 06:36:23;;;;;;;;;;;13.30;99.90;;;;;;5103301;28;20435;-84
2023/05/25 06:38:49;;;;;;;;;;;13.40;99.90;;;;;;5106589;28;20303;-82
2023/05/25 06:41:14;;;;;;;;;;;13.60;48.70;;;;;;5095680;28;19935;-82
2023/05/25 06:43:41;;;;;;;;;;;13.80;1.00;;;;;;5110242;28;19995;-82
2023/05/25 06:46:08;;;;;;;;;;;14.00;1.00;;;;;;5108700;28;19939;-82
2023/05/25 06:48:34;;;;;;;;;;;14.10;1.00;;;;;;5095543;28;19924;-83
2023/05/25 06:50:59;;;;;;;;;;;14.30;99.90;;;;;;5092525;28;19983;-81
2023/05/25 06:53:25;;;;;;;;;;;14.40;99.90;;;;;;5109988;28;19928;-82
2023/05/25 06:55:51;;;;;;;;;;;14.50;99.90;;;;;;5095048;28;20016;-83
2023/05/25 06:58:16;;;;;;;;;;;14.80;99.90;;;;;;5097506;28;19935;-82
2023/05/25 07:00:42;;;;;;;;;;;14.90;99.90;;;;;;5107328;28;19958;-82
2023/05/25 07:03:08;;;;;;;;;;;15.00;99.90;;;;;;5106275;28;20028;-82
2023/05/25 07:05:33;;;;;;;;;;;15.10;99.90;;;;;;5104666;28;19924;-82
2023/05/25 07:07:59;;;;;;;;;;;15.10;53.90;;;;;;5098866;28;19947;-82
2023/05/25 07:10:24;;;;;;;;;;;15.20;91.00;;;;;;5106099;28;19930;-82
2023/05/25 07:12:51;;;;;;;;;;;15.30;64.60;;;;;;5109456;28;19934;-81
2023/05/25 07:15:16;;;;;;;;;;;15.20;60.50;;;;;;5108168;28;19935;-82
2023/05/25 07:17:42;;;;;;;;;;;15.00;67.30;;;;;;5109595;28;19928;-82
2023/05/25 07:20:09;;;;;;;;;;;15.00;72.70;;;;;;5105418;28;19923;-82
2023/05/25 07:22:35;;;;;;;;;;;14.80;75.20;;;;;;5108173;28;19969;-81
2023/05/25 07:25:01;;;;;;;;;;;14.70;64.10;;;;;;5106937;28;19935;-84
2023/05/25 07:27:26;;;;;;;;;;;14.70;72.80;;;;;;5083477;28;19932;-81
2023/05/25 07:29:52;;;;;;;;;;;14.80;63.80;;;;;;5101182;28;19953;-81
2023/05/25 07:32:17;;;;;;;;;;;15.00;71.10;;;;;;5100734;28;19947;-81
2023/05/25 07:34:43;;;;;;;;;;;15.20;1.90;;;;;;5092727;28;19967;-81
2023/05/25 07:37:09;;;;;;;;;;;15.40;1.00;;;;;;5108444;28;19989;-81
2023/05/25 07:39:34;;;;;;;;;;;15.50;1.00;;;;;;5108126;28;19924;-82
2023/05/25 07:42:00;;;;;;;;;;;15.70;1.00;;;;;;5104025;28;19931;-83
2023/05/25 07:44:26;;;;;;;;;;;15.90;1.00;;;;;;5103241;28;20008;-82
2023/05/25 07:46:51;;;;;;;;;;;16.20;1.00;;;;;;5094987;28;20376;-82
2023/05/25 07:49:17;;;;;;;;;;;16.40;1.00;;;;;;5099636;28;19924;-82
2023/05/25 07:51:44;;;;;;;;;;;16.50;1.00;;;;;;5079325;28;20011;-82
2023/05/25 07:54:10;;;;;;;;;;;16.40;1.00;;;;;;5100647;28;19924;-83
2023/05/25 07:56:36;;;;;;;;;;;16.20;1.00;;;;;;5110355;28;20337;-82
2023/05/25 07:59:02;;;;;;;;;;;16.10;1.00;;;;;;5104846;28;20245;-86
2023/05/25 08:01:27;;;;;;;;;;;16.20;1.00;;;;;;5094103;28;19931;-82
2023/05/25 08:03:53;;;;;;;;;;;16.40;1.00;;;;;;5099371;28;19947;-82
2023/05/25 08:06:19;;;;;;;;;;;16.70;1.00;;;;;;5093573;28;19931;-81
2023/05/25 08:08:45;;;;;;;;;;;16.70;1.00;;;;;;5099336;28;20432;-82
2023/05/25 08:11:11;;;;;;;;;;;16.70;1.00;;;;;;5112249;28;19933;-82
2023/05/25 08:13:37;;;;;;;;;;;16.50;1.00;;;;;;5094933;28;19928;-82
2023/05/25 08:16:03;;;;;;;;;;;16.60;1.00;;;;;;5096370;28;20035;-83
2023/05/25 08:18:30;;;;;;;;;;;17.10;1.00;;;;;;5116180;27;19934;-82
2023/05/25 08:20:56;;;;;;;;;;;18.00;1.00;;;;;;5102134;28;20258;-82
2023/05/25 08:23:21;;;;;;;;;;;18.40;1.00;;;;;;5106337;28;20402;-82
2023/05/25 08:25:47;;;;;;;;;;;18.70;1.00;;;;;;5098911;28;19931;-84
2023/05/25 08:28:12;;;;;;;;;;;19.00;1.00;;;;;;5099925;28;20329;-83
2023/05/25 08:30:38;;;;;;;;;;;19.60;1.00;;;;;;5102224;28;20011;-82
2023/05/25 08:33:04;;;;;;;;;;;20.00;1.00;;;;;;5109718;28;20289;-82
2023/05/25 08:35:29;;;;;;;;;;;20.00;1.00;;;;;;5106031;28;20181;-82
2023/05/25 08:37:55;;;;;;;;;;;19.50;1.00;;;;;;5092960;28;20002;-81
2023/05/25 08:40:21;;;;;;;;;;;18.80;1.00;;;;;;5109063;27;19928;-81
2023/05/25 08:42:47;;;;;;;;;;;18.20;1.00;;;;;;5094067;28;19928;-83
2023/05/25 08:45:12;;;;;;;;;;;17.80;1.00;;;;;;5111085;28;19923;-88
2023/05/25 08:47:42;;;;;;;;;;;17.30;1.00;;;;;;5112777;28;19927;-80
2023/05/25 08:50:08;;;;;;;;;;;17.10;1.00;;;;;;5092989;28;20026;-82
2023/05/25 08:52:34;;;;;;;;;;;17.00;1.00;;;;;;5092744;28;19928;-82
2023/05/25 08:55:02;;;;;;;;;;;16.80;1.00;;;;;;5093963;28;19924;-84
2023/05/25 08:57:35;;;;;;;;;;;16.90;1.00;;;;;;5091402;28;19928;-82
2023/05/25 09:00:09;;;;;;;;;;;17.80;1.00;;;;;;5093762;28;19932;-82
2023/05/25 09:02:35;;;;;;;;;;;18.20;1.00;;;;;;5111801;27;20712;-82
2023/05/25 09:05:01;;;;;;;;;;;17.90;1.00;;;;;;5102342;28;19928;-82
2023/05/25 09:07:27;;;;;;;;;;;17.80;1.00;;;;;;5092310;28;19932;-82
2023/05/25 09:09:53;;;;;;;;;;;18.80;1.00;;;;;;5105715;28;19967;-82
2023/05/25 09:12:19;;;;;;;;;;;19.60;1.00;;;;;;5114192;27;20399;-79
2023/05/25 09:14:46;;;;;;;;;;;19.60;1.00;;;;;;5112097;28;20023;-79
2023/05/25 09:17:13;;;;;;;;;;;19.70;1.00;;;;;;5128532;27;19934;-79
2023/05/25 09:19:39;;;;;;;;;;;19.40;1.00;;;;;;5111439;28;19924;-87
2023/05/25 09:22:05;;;;;;;;;;;19.00;1.00;;;;;;5098808;28;19930;-81
2023/05/25 09:24:30;;;;;;;;;;;18.80;1.00;;;;;;5110836;28;19934;-80
2023/05/25 09:26:56;;;;;;;;;;;19.10;1.00;;;;;;5111714;28;19932;-81
2023/05/25 09:29:21;;;;;;;;;;;19.60;1.00;;;;;;5094494;28;20300;-81
2023/05/25 09:31:47;;;;;;;;;;;20.30;1.00;;;;;;5110411;28;19923;-81
2023/05/25 09:34:13;;;;;;;;;;;20.40;1.00;;;;;;5111548;28;19931;-82
2023/05/25 09:36:42;;;;;;;;;;;20.40;1.00;;;;;;5096567;28;20565;-80
2023/05/25 09:39:11;;;;;;;;;;;21.00;1.00;;;;;;5111866;28;20324;-80
2023/05/25 09:41:36;;;;;;;;;;;21.00;1.00;;;;;;5111745;28;19932;-79
2023/05/25 09:44:05;;;;;;;;;;;20.60;1.00;;;;;;5103390;28;19924;-80
2023/05/25 09:46:35;;;;;;;;;;;20.80;1.00;;;;;;5092464;28;19975;-80
2023/05/25 09:49:00;;;;;;;;;;;20.70;1.00;;;;;;5102903;28;19924;-81
2023/05/25 09:51:26;;;;;;;;;;;20.10;1.00;;;;;;5114215;27;20363;-80
2023/05/25 09:53:51;;;;;;;;;;;19.90;1.00;;;;;;5111348;28;20014;-82
2023/05/25 09:56:17;;;;;;;;;;;19.70;1.00;;;;;;5110569;28;20275;-82
2023/05/25 09:58:44;;;;;;;;;;;19.40;1.00;;;;;;5100107;28;19927;-81
2023/05/25 10:01:10;;;;;;;;;;;19.20;1.00;;;;;;5106256;28;19930;-80
2023/05/25 10:03:43;;;;;;;;;;;19.70;1.00;;;;;;5103193;28;19927;-81
2023/05/25 10:06:09;;;;;;;;;;;21.00;1.00;;;;;;5111949;28;19924;-81
2023/05/25 10:08:35;;;;;;;;;;;22.30;1.00;;;;;;5100459;28;19927;-81
2023/05/25 10:11:00;;;;;;;;;;;22.70;1.00;;;;;;5107140;28;19935;-83
2023/05/25 10:13:28;;;;;;;;;;;22.30;1.00;;;;;;5103525;28;20437;-81
2023/05/25 10:15:53;;;;;;;;;;;21.50;1.00;;;;;;5101282;28;19932;-80
2023/05/25 10:18:23;;;;;;;;;;;21.40;1.00;;;;;;5107031;28;19928;-80
2023/05/25 10:20:51;;;;;;;;;;;22.30;1.00;;;;;;5101935;28;19924;-80
2023/05/25 10:23:18;;;;;;;;;;;21.90;1.00;;;;;;5108651;28;19954;-81
2023/05/25 10:25:44;;;;;;;;;;;21.00;1.00;;;;;;5111096;28;19968;-80
2023/05/25 10:28:21;;;;;;;;;;;20.80;1.00;;;;;;5106336;28;19963;-80
2023/05/25 10:30:48;;;;;;;;;;;21.50;1.00;;;;;;5110323;28;19932;-81
2023/05/25 10:33:14;;;;;;;;;;;21.50;1.00;;;;;;5109015;28;19924;-80
2023/05/25 10:35:40;;;;;;;;;;;22.00;1.00;;;;;;5090004;28;19930;-80
2023/05/25 10:38:07;;;;;;;;;;;23.20;1.00;;;;;;5109008;28;20415;-80
2023/05/25 10:40:33;;;;;;;;;;;23.40;1.00;;;;;;5103522;28;19928;-81
2023/05/25 10:42:59;;;;;;;;;;;23.60;1.00;;;;;;5109147;28;19923;-80
2023/05/25 10:45:25;;;;;;;;;;;23.40;1.00;;;;;;5089768;28;19969;-80
2023/05/25 10:47:51;;;;;;;;;;;22.90;1.00;;;;;;5103894;28;19928;-80
2023/05/25 10:50:25;;;;;;;;;;;23.00;1.00;;;;;;5090238;28;19932;-82
2023/05/25 10:52:58;;;;;;;;;;;22.50;1.00;;;;;;5103612;28;19931;-81
2023/05/25 10:55:30;;;;;;;;;;;21.70;1.00;;;;;;5074392;28;19990;-81
2023/05/25 10:58:15;;;;;;;;;;;21.70;1.00;;;;;;5108284;28;19935;-81
2023/05/25 11:00:41;;;;;;;;;;;21.70;1.00;;;;;;5109892;28;19950;-84
2023/05/25 11:03:07;;;;;;;;;;;23.00;1.00;;;;;;5080234;28;19931;-83
2023/05/25 11:05:37;;;;;;;;;;;24.50;1.00;;;;;;5109068;28;19924;-81
2023/05/25 11:08:04;;;;;;;;;;;24.60;1.00;;;;;;5097960;28;19923;-81
2023/05/25 11:10:42;;;;;;;;;;;23.80;1.00;;;;;;5119734;27;19928;-80
2023/05/25 11:13:27;;;;;;;;;;;23.60;1.00;;;;;;5102387;28;19974;-80
2023/05/25 11:16:12;;;;;;;;;;;24.90;1.00;;;;;;5072531;28;19975;-80
2023/05/25 11:18:39;;;;;;;;;;;26.50;1.00;;;;;;5108201;28;19924;-81
2023/05/25 11:21:12;;;;;;;;;;;26.80;1.00;;;;;;5098845;28;19932;-80
2023/05/25 11:23:38;;;;;;;;;;;26.40;1.00;;;;;;5096660;28;19923;-81
2023/05/25 11:26:05;;;;;;;;;;;25.70;1.00;;;;;;5098909;28;20372;-81
2023/05/25 11:28:31;;;;;;;;;;;25.90;1.00;;;;;;5111622;28;19935;-81
2023/05/25 11:30:58;;;;;;;;;;;26.60;1.00;;;;;;5113677;28;20526;-81
2023/05/25 11:33:23;;;;;;;;;;;27.50;1.00;;;;;;5102803;28;19931;-81
2023/05/25 11:35:50;;;;;;;;;;;26.80;1.00;;;;;;5097795;28;19927;-80
2023/05/25 11:38:17;;;;;;;;;;;25.30;1.00;;;;;;5108810;28;20329;-80
2023/05/25 11:40:42;;;;;;;;;;;24.20;1.00;;;;;;5100102;28;19934;-79
2023/05/25 11:43:08;;;;;;;;;;;23.50;1.00;;;;;;5103147;28;20018;-80
2023/05/25 11:45:36;;;;;;;;;;;24.20;1.00;;;;;;5098783;28;19931;-80
2023/05/25 11:48:03;;;;;;;;;;;25.70;1.00;;;;;;5092459;28;20039;-80
2023/05/25 11:50:29;;;;;;;;;;;26.10;1.00;;;;;;5110936;28;20010;-79
2023/05/25 11:52:55;;;;;;;;;;;25.20;1.00;;;;;;5095313;28;19931;-80
2023/05/25 11:55:21;;;;;;;;;;;24.10;1.00;;;;;;5100207;28;19928;-81
2023/05/25 11:57:53;;;;;;;;;;;23.20;1.00;;;;;;5090846;28;20069;-82
2023/05/25 12:00:26;;;;;;;;;;;23.50;1.00;;;;;;5091340;28;19923;-79
2023/05/25 12:02:51;;;;;;;;;;;24.20;1.00;;;;;;5103229;28;20257;-80
2023/05/25 12:05:17;;;;;;;;;;;25.40;1.00;;;;;;5091101;28;19931;-82
2023/05/25 12:07:45;;;;;;;;;;;25.30;1.00;;;;;;5095471;28;19931;-80
2023/05/25 12:10:11;;;;;;;;;;;24.20;1.00;;;;;;5107223;28;20051;-80
2023/05/25 12:12:40;;;;;;;;;;;23.00;1.00;;;;;;5098878;28;19932;-80
2023/05/25 12:15:08;;;;;;;;;;;22.80;1.00;;;;;;5109704;28;20064;-81
2023/05/25 12:17:33;;;;;;;;;;;23.90;1.00;;;;;;5109491;28;19923;-79
2023/05/25 12:19:59;;;;;;;;;;;24.20;1.00;;;;;;5108929;28;19924;-80
2023/05/25 12:22:25;;;;;;;;;;;24.00;1.00;;;;;;5109286;28;20314;-81
2023/05/25 12:24:51;;;;;;;;;;;23.70;1.00;;;;;;5094786;28;19927;-80
2023/05/25 12:27:17;;;;;;;;;;;23.80;1.00;;;;;;5105683;28;19969;-80
2023/05/25 12:29:47;;;;;;;;;;;24.40;1.00;;;;;;5101675;28;19924;-87
2023/05/25 12:32:12;;;;;;;;;;;23.70;1.00;;;;;;5098030;28;19924;-80
2023/05/25 12:34:38;;;;;;;;;;;23.90;1.00;;;;;;5112829;28;20398;-80
2023/05/25 12:37:04;;;;;;;;;;;25.00;1.00;;;;;;5111385;28;19924;-81
2023/05/25 12:39:29;;;;;;;;;;;26.30;1.00;;;;;;5095682;28;20395;-81
2023/05/25 12:41:58;;;;;;;;;;;26.30;1.00;;;;;;5112162;28;19928;-80
2023/05/25 12:44:31;;;;;;;;;;;25.60;1.00;;;;;;5112809;28;19930;-80
2023/05/25 12:47:08;;;;;;;;;;;26.00;1.00;;;;;;5100320;28;19955;-81
2023/05/25 12:49:34;;;;;;;;;;;26.60;1.00;;;;;;5099675;28;19924;-81
2023/05/25 12:52:00;;;;;;;;;;;27.40;1.00;;;;;;5102792;28;19930;-81
2023/05/25 12:54:33;;;;;;;;;;;28.10;1.00;;;;;;5110292;28;19934;-82
2023/05/25 12:57:01;;;;;;;;;;;28.60;1.00;;;;;;5112139;28;20011;-81
2023/05/25 12:59:26;;;;;;;;;;;29.10;1.00;;;;;;5111417;28;20027;-80
2023/05/25 13:01:52;;;;;;;;;;;29.30;1.00;;;;;;5102070;28;20018;-81
2023/05/25 13:04:18;;;;;;;;;;;29.30;1.00;;;;;;5092226;28;19932;-81
2023/05/25 13:06:43;;;;;;;;;;;29.50;1.00;;;;;;5085022;28;20416;-82
2023/05/25 13:09:09;;;;;;;;;;;29.30;1.00;;;;;;5104696;27;19934;-81
2023/05/25 13:11:34;;;;;;;;;;;28.40;1.00;;;;;;5094272;28;19969;-81
2023/05/25 13:14:00;;;;;;;;;;;27.80;1.00;;;;;;5111557;28;19930;-81
2023/05/25 13:16:26;;;;;;;;;;;27.90;1.00;;;;;;5112551;28;19928;-81
2023/05/25 13:18:52;;;;;;;;;;;28.20;1.00;;;;;;5111912;28;19988;-81
2023/05/25 13:21:17;;;;;;;;;;;28.50;1.00;;;;;;5109800;28;20396;-82
2023/05/25 13:23:43;;;;;;;;;;;28.90;1.00;;;;;;5095568;28;20266;-83
2023/05/25 13:26:09;;;;;;;;;;;28.50;1.00;;;;;;5092867;28;19934;-81
2023/05/25 13:28:35;;;;;;;;;;;28.20;1.00;;;;;;5108683;28;19947;-81
2023/05/25 13:31:00;;;;;;;;;;;26.90;1.00;;;;;;5088879;28;20373;-81
2023/05/25 13:33:26;;;;;;;;;;;26.10;1.00;;;;;;5110630;28;19931;-82
2023/05/25 13:35:57;;;;;;;;;;;26.40;1.00;;;;;;5111662;28;20376;-85
2023/05/25 13:38:23;;;;;;;;;;;26.80;1.00;;;;;;5094287;28;19924;-82
2023/05/25 13:40:49;;;;;;;;;;;27.10;1.00;;;;;;5101567;28;19931;-80
2023/05/25 13:43:15;;;;;;;;;;;27.40;1.00;;;;;;5109630;28;19931;-80
2023/05/25 13:45:40;;;;;;;;;;;27.70;1.00;;;;;;5084580;28;19928;-81
2023/05/25 13:48:06;;;;;;;;;;;27.60;1.00;;;;;;5089856;28;20001;-81
2023/05/25 13:50:32;;;;;;;;;;;27.70;1.00;;;;;;5111196;28;19928;-81
2023/05/25 13:52:57;;;;;;;;;;;27.80;1.00;;;;;;5107298;28;19981;-81
2023/05/25 13:55:23;;;;;;;;;;;28.20;1.00;;;;;;5091516;28;19930;-81
2023/05/25 13:57:48;;;;;;;;;;;28.10;1.00;;;;;;5090756;28;20273;-81
2023/05/25 14:00:14;;;;;;;;;;;28.00;1.00;;;;;;5090719;28;19935;-81
2023/05/25 14:02:40;;;;;;;;;;;28.00;1.00;;;;;;5087254;28;19932;-81
2023/05/25 14:05:05;;;;;;;;;;;28.00;1.00;;;;;;5083280;28;19932;-80
2023/05/25 14:07:31;;;;;;;;;;;28.20;1.00;;;;;;5097756;28;19928;-82
2023/05/25 14:09:57;;;;;;;;;;;28.40;1.00;;;;;;5109628;28;19967;-85
2023/05/25 14:12:22;;;;;;;;;;;28.50;1.00;;;;;;5103243;28;19924;-81
2023/05/25 14:14:48;;;;;;;;;;;28.50;1.00;;;;;;5104164;28;19924;-80
2023/05/25 14:17:14;;;;;;;;;;;28.00;1.00;;;;;;5099323;28;19924;-80
2023/05/25 14:19:39;;;;;;;;;;;28.10;1.00;;;;;;5093559;28;20424;-80
2023/05/25 14:22:05;;;;;;;;;;;28.30;1.00;;;;;;5110095;28;19931;-81
2023/05/25 14:24:31;;;;;;;;;;;27.70;1.00;;;;;;5109527;28;20372;-81
2023/05/25 14:26:56;;;;;;;;;;;26.80;1.00;;;;;;5104301;28;19932;-81
2023/05/25 14:29:22;;;;;;;;;;;25.90;1.00;;;;;;5090885;28;19928;-81